Eloy, Arizona
Current Conditions -  °F | °C
As of 1:15 AM on Monday 24 Nov 2014 (Local Time) from KCGZ Reporting Station
Clear Clear  
Wind Chill: 43°   Ceiling: Unl
Heat Index: 43°   Visibility: 10mi
Dew Point:   Wind: 0mph
Humidity: 23%   Direction: NA
Pressure: 30.15"   Gusts: NA
Location:  32.75°N, 111.55°W
Report Text: KCGZ 240815Z AUTO 00000KT 10SM CLR 06/M14 A3015 RMK AO1
Loading
Personal Weather Stations






























Interactive Weather Map New forecast layout! Learn more

10-Day Weather Forecast

Advertisements
Track Severe Weather on mobile